Time;durP1;ratioP1;P1;durP2;ratioP2;P2;SDS_P1;SDS_P2;PMS_P1;PMS_P2;Temp;Humidity;BMP_temperature;BMP_pressure;BME280_temperature;BME280_humidity;BME280_pressure;Samples;Min_cycle;Max_cycle;Signal;HPM_P1;HPM_P2
2022/04/25 00:00:48;;;;;;;0.40;0.20;;;7.30;1.40;;;7.95;100.00;94253.81;646585;216;31479;-73
2022/04/25 00:03:30;;;;;;;0.40;0.20;;;7.30;1.40;;;7.92;100.00;94257.95;646596;216;31531;-72
2022/04/25 00:06:13;;;;;;;2.27;0.43;;;7.30;1.40;;;7.91;100.00;94251.34;647184;212;31468;-73
2022/04/25 00:08:55;;;;;;;0.40;0.20;;;7.30;1.40;;;7.92;100.00;94251.43;620126;222;31862;-74
2022/04/25 00:11:37;;;;;;;0.40;0.20;;;7.30;1.40;;;7.92;100.00;94254.98;647501;216;31697;-73
2022/04/25 00:14:19;;;;;;;0.40;0.20;;;7.30;1.40;;;7.94;100.00;94252.17;647537;216;31478;-74
2022/04/25 00:17:04;;;;;;;0.40;0.20;;;7.30;1.40;;;7.96;100.00;94252.38;646983;212;32164;-75
2022/04/25 00:19:45;;;;;;;0.60;0.50;;;7.30;1.40;;;7.92;100.00;94256.23;648002;212;31491;-73
2022/04/25 00:22:27;;;;;;;0.50;0.30;;;7.30;1.40;;;7.97;100.00;94254.89;646425;216;42113;-73
2022/04/25 00:25:15;;;;;;;0.40;0.20;;;7.30;1.40;;;7.93;100.00;94251.73;646215;212;31541;-72
2022/04/25 00:27:59;;;;;;;0.40;0.20;;;7.30;1.40;;;7.93;100.00;94256.19;646800;216;31614;-74
2022/04/25 00:30:41;;;;;;;0.40;0.30;;;7.30;1.40;;;7.91;100.00;94252.91;648516;212;31513;-75
2022/04/25 00:36:00;;;;;;;0.40;0.20;;;7.30;1.40;;;7.92;100.00;94245.92;649246;216;31977;-74
2022/04/25 00:38:41;;;;;;;0.40;0.30;;;7.30;1.40;;;7.92;100.00;94246.73;646959;216;31524;-75
2022/04/25 00:41:23;;;;;;;0.40;0.20;;;7.30;1.40;;;7.92;100.00;94248.30;647528;212;31508;-74
2022/04/25 00:44:04;;;;;;;0.40;0.20;;;7.20;1.40;;;7.88;100.00;94247.43;646663;212;31498;-74
2022/04/25 00:46:54;;;;;;;0.40;0.20;;;7.30;1.40;;;7.91;100.00;94253.39;645861;216;31472;-74
2022/04/25 00:49:41;;;;;;;0.40;0.20;;;7.30;1.40;;;7.89;100.00;94251.30;619316;226;32067;-74
2022/04/25 00:52:23;;;;;;;0.40;0.20;;;7.30;1.40;;;7.88;100.00;94249.53;646188;212;31623;-74
2022/04/25 00:55:07;;;;;;;0.40;0.20;;;7.30;1.40;;;7.88;100.00;94252.29;619005;226;31963;-75
2022/04/25 00:57:48;;;;;;;0.40;0.20;;;7.30;1.40;;;7.87;100.00;94254.85;647635;212;31739;-74
2022/04/25 01:00:32;;;;;;;0.50;0.30;;;7.30;1.40;;;7.86;100.00;94249.66;647671;212;31600;-74
2022/04/25 01:03:13;;;;;;;0.40;0.20;;;7.30;1.40;;;7.86;100.00;94253.81;646817;212;32174;-74
2022/04/25 01:05:54;;;;;;;0.40;0.20;;;7.40;1.40;;;7.88;100.00;94252.13;619187;222;32258;-74
2022/04/25 01:08:37;;;;;;;0.40;0.20;;;7.50;1.40;;;7.88;100.00;94254.67;636900;212;32269;-74
2022/04/25 01:11:22;;;;;;;0.40;0.20;;;7.40;1.40;;;7.88;100.00;94258.11;647050;212;31508;-75
2022/04/25 01:14:11;;;;;;;0.40;0.20;;;7.50;1.40;;;7.91;100.00;94254.97;647847;212;31532;-75
2022/04/25 01:16:54;;;;;;;0.40;0.20;;;7.50;1.40;;;7.89;100.00;94257.12;647890;216;42096;-74
2022/04/25 01:19:35;;;;;;;0.40;0.20;;;7.50;1.40;;;7.91;100.00;94259.02;646459;212;31517;-74
2022/04/25 01:22:18;;;;;;;0.40;0.30;;;7.50;1.40;;;7.92;100.00;94260.42;646453;216;31513;-73
2022/04/25 01:28:13;;;;;;;0.40;0.20;;;7.50;1.40;;;7.94;100.00;94260.98;647885;212;31725;-76
2022/04/25 01:30:55;;;;;;;0.40;0.30;;;7.50;1.40;;;7.97;100.00;94260.94;619798;222;31840;-74
2022/04/25 01:35:53;;;;;;;;;;;7.50;1.40;;;7.96;100.00;94262.69;652607;216;24830;-74
2022/04/25 01:38:41;;;;;;;;;;;7.50;1.40;;;7.95;100.00;94266.07;654083;212;24925;-74
2022/04/25 01:41:23;;;;;;;;;;;7.40;1.40;;;7.93;100.00;94267.44;654763;212;24819;-74
2022/04/25 01:44:05;;;;;;;;;;;7.40;1.40;;;7.95;100.00;94263.20;654492;216;24870;-74
2022/04/25 01:46:47;;;;;;;;;;;7.50;1.40;;;7.95;100.00;94267.36;653744;212;25610;-75
2022/04/25 01:49:28;;;;;;;;;;;7.50;1.40;;;7.96;100.00;94267.55;650306;215;24795;-74
2022/04/25 01:52:16;;;;;;;;;;;7.40;1.40;;;7.95;100.00;94267.69;654237;212;24805;-74
2022/04/25 01:54:57;;;;;;;;;;;7.50;1.40;;;7.96;100.00;94272.02;652762;212;24820;-75
2022/04/25 01:57:39;;;;;;;;;;;7.50;1.40;;;7.95;100.00;94271.37;655487;212;24822;-75
2022/04/25 02:00:21;;;;;;;;;;;7.40;1.40;;;7.95;100.00;94268.29;654430;212;25210;-74
2022/04/25 02:03:01;;;;;;;;;;;7.40;1.40;;;7.96;100.00;94271.97;654640;212;24967;-73
2022/04/25 02:05:49;;;;;;;;;;;7.40;1.40;;;7.97;100.00;94267.50;652439;216;25038;-72
2022/04/25 02:08:37;;;;;;;;;;;7.50;1.40;;;7.97;100.00;94268.10;635579;220;24899;-74
2022/04/25 02:11:20;;;;;;;;;;;7.50;1.40;;;7.93;100.00;94270.97;653608;216;24816;-75
2022/04/25 02:14:01;;;;;;;;;;;7.50;1.40;;;7.93;100.00;94270.97;653553;212;24834;-75
2022/04/25 02:16:42;;;;;;;;;;;7.50;1.40;;;7.96;100.00;94267.50;654953;216;25366;-74
2022/04/25 02:19:29;;;;;;;;;;;7.40;1.40;;;7.93;100.00;94267.92;653835;216;24903;-74
2022/04/25 02:22:17;;;;;;;;;;;7.40;1.40;;;7.94;100.00;94271.59;653971;212;24772;-74
2022/04/25 02:24:58;;;;;;;;;;;7.40;1.40;;;7.94;100.00;94275.27;652960;212;25116;-74
2022/04/25 02:27:40;;;;;;;;;;;7.40;1.40;;;7.94;100.00;94279.77;653688;216;24820;-76
2022/04/25 02:30:22;;;;;;;;;;;7.40;1.40;;;7.95;100.00;94279.92;647979;214;24849;-75
2022/04/25 02:35:52;;;;;;;0.40;0.20;;;7.40;1.40;;;7.95;100.00;94279.23;647084;212;31509;-74
2022/04/25 02:38:34;;;;;;;0.40;0.20;;;7.40;1.40;;;7.94;100.00;94283.70;648194;212;31476;-74
2022/04/25 02:41:16;;;;;;;0.40;0.30;;;7.40;1.40;;;7.97;100.00;94285.64;646752;212;31506;-75
2022/04/25 02:43:59;;;;;;;0.40;0.30;;;7.40;1.40;;;8.00;100.00;94285.25;646274;216;31568;-73
2022/04/25 02:46:47;;;;;;;0.40;0.30;;;7.40;1.40;;;7.99;100.00;94287.81;642910;216;31569;-75
2022/04/25 02:49:29;;;;;;;0.40;0.20;;;7.40;1.40;;;7.95;100.00;94292.67;645902;212;31557;-75
2022/04/25 02:52:13;;;;;;;0.60;0.40;;;7.50;1.40;;;7.97;100.00;94292.34;620583;226;32304;-76
2022/04/25 02:54:54;;;;;;;0.40;0.20;;;7.40;1.40;;;8.02;100.00;94297.02;641153;216;42154;-76
2022/04/25 02:57:36;;;;;;;0.40;0.20;;;7.40;1.40;;;7.98;100.00;94293.38;647399;216;31640;-76
2022/04/25 03:00:19;;;;;;;0.40;0.40;;;7.40;1.40;;;7.98;100.00;94292.90;647845;212;31493;-75
2022/04/25 03:03:00;;;;;;;0.40;0.30;;;7.50;1.40;;;7.98;100.00;94295.65;647875;212;31710;-76
2022/04/25 03:05:43;;;;;;;0.70;0.20;;;7.50;1.40;;;8.00;100.00;94301.77;647253;212;31509;-75
2022/04/25 03:08:25;;;;;;;0.60;0.33;;;7.50;1.40;;;8.05;100.00;94299.77;638960;212;31805;-74
2022/04/25 03:11:12;;;;;;;0.40;0.20;;;7.50;1.40;;;8.07;100.00;94299.14;647413;216;31492;-76
2022/04/25 03:13:56;;;;;;;0.70;0.30;;;7.50;1.40;;;8.07;100.00;94299.36;619706;222;31893;-74
2022/04/25 03:16:44;;;;;;;0.68;0.20;;;7.50;1.40;;;8.06;100.00;94301.86;642937;216;31490;-76
2022/04/25 03:19:32;;;;;;;0.40;0.20;;;7.50;1.40;;;8.06;100.00;94304.03;645821;216;31529;-73
2022/04/25 03:22:19;;;;;;;0.60;0.30;;;7.50;1.40;;;8.08;100.00;94305.86;647077;216;31527;-75
2022/04/25 03:25:01;;;;;;;0.40;0.20;;;7.50;1.40;;;8.09;100.00;94309.53;647103;216;31645;-74
2022/04/25 03:27:43;;;;;;;0.40;0.30;;;7.50;1.40;;;8.08;100.00;94312.05;646564;216;31523;-75
2022/04/25 03:30:25;;;;;;;0.40;0.20;;;7.50;1.40;;;8.07;100.00;94314.02;648560;212;31477;-76
2022/04/25 03:35:53;;;;;;;;;;;7.50;1.40;;;8.08;100.00;94326.84;653208;216;24880;-73
2022/04/25 03:38:42;;;;;;;;;;;7.50;1.40;;;8.08;100.00;94325.45;607053;233;24956;-74
2022/04/25 03:41:31;;;;;;;;;;;7.50;1.40;;;8.06;100.00;94328.37;653047;216;24821;-73
2022/04/25 03:44:10;;;;;;;;;;;7.50;1.40;;;8.06;100.00;94329.06;654731;216;24890;-76
2022/04/25 03:46:58;;;;;;;;;;;7.50;1.40;;;8.09;100.00;94329.48;653482;216;24873;-74
2022/04/25 03:49:39;;;;;;;;;;;7.50;1.40;;;8.07;100.00;94332.83;653129;216;24840;-73
2022/04/25 03:52:26;;;;;;;;;;;7.50;1.40;;;8.04;100.00;94332.30;653831;216;25096;-76
2022/04/25 03:58:03;;;;;;;;;;;7.50;1.40;;;8.06;100.00;94339.01;653910;216;25033;-75
2022/04/25 04:00:44;;;;;;;;;;;7.50;1.40;;;8.05;100.00;94344.27;653976;212;25017;-75
2022/04/25 04:03:32;;;;;;;;;;;7.50;1.40;;;8.09;100.00;94347.30;654211;212;24822;-74
2022/04/25 04:06:15;;;;;;;;;;;7.50;1.40;;;8.09;100.00;94345.02;649503;215;25697;-75
2022/04/25 04:08:56;;;;;;;;;;;7.50;1.40;;;8.09;100.00;94347.78;631060;214;24869;-75
2022/04/25 04:11:46;;;;;;;;;;;7.50;1.40;;;8.05;100.00;94350.14;654177;216;24748;-75
2022/04/25 04:14:21;;;;;;;;;;;7.50;1.40;;;8.13;100.00;94355.53;652560;216;24755;-73
2022/04/25 04:17:08;;;;;;;;;;;7.60;1.40;;;8.14;100.00;94361.02;653722;216;25269;-75
2022/04/25 04:19:53;;;;;;;;;;;7.60;1.40;;;8.15;100.00;94363.14;623409;225;24874;-74
2022/04/25 04:22:34;;;;;;;;;;;7.60;1.40;;;8.14;100.00;94371.95;653215;212;24844;-73
2022/04/25 04:25:15;;;;;;;;;;;7.60;1.40;;;8.11;100.00;94374.84;649252;216;24844;-73
2022/04/25 04:27:57;;;;;;;;;;;7.60;1.40;;;8.14;100.00;94375.59;653246;216;24863;-73
2022/04/25 04:30:38;;;;;;;;;;;7.60;1.40;;;8.18;100.00;94386.01;653658;216;24926;-74
2022/04/25 04:38:46;;;;;;;0.40;0.30;;;7.60;1.40;;;8.17;100.00;94399.61;646557;212;31510;-75
2022/04/25 04:41:28;;;;;;;1.13;0.70;;;7.60;1.40;;;8.15;100.00;94400.07;647273;212;31499;-76
2022/04/25 04:44:12;;;;;;;0.60;0.50;;;7.60;1.40;;;8.20;100.00;94398.20;646825;213;31552;-73
2022/04/25 04:46:54;;;;;;;1.30;0.30;;;7.60;1.40;;;8.25;100.00;94406.70;646886;216;31512;-75
2022/04/25 04:49:36;;;;;;;0.40;0.30;;;7.70;1.40;;;8.25;100.00;94405.36;646287;216;31740;-74
2022/04/25 04:52:17;;;;;;;0.40;0.20;;;7.70;1.40;;;8.30;100.00;94409.53;646579;216;31516;-73
2022/04/25 04:55:01;;;;;;;0.70;0.30;;;7.70;1.40;;;8.30;100.00;94412.17;642854;216;42099;-76
2022/04/25 04:57:48;;;;;;;1.60;0.90;;;7.80;1.40;;;8.31;100.00;94409.71;646427;216;31722;-74
2022/04/25 05:00:30;;;;;;;0.60;0.40;;;7.80;1.40;;;8.33;100.00;94417.26;645386;216;31497;-73
2022/04/25 05:03:15;;;;;;;0.50;0.50;;;7.80;1.40;;;8.37;100.00;94416.51;620378;222;31892;-75
2022/04/25 05:05:55;;;;;;;0.40;0.40;;;7.80;1.40;;;8.44;100.00;94423.96;646658;212;42137;-75
2022/04/25 05:08:43;;;;;;;0.40;0.30;;;7.90;1.40;;;8.46;100.00;94431.09;614165;226;31980;-73
2022/04/25 05:11:31;;;;;;;0.60;0.50;;;7.90;1.40;;;8.45;100.00;94433.16;619552;222;31898;-75
2022/04/25 05:14:14;;;;;;;2.00;0.50;;;7.90;1.40;;;8.50;100.00;94441.33;647097;216;31432;-74
2022/04/25 05:16:55;;;;;;;0.40;0.30;;;7.90;1.40;;;8.61;100.00;94444.87;619527;226;31964;-77
2022/04/25 05:19:42;;;;;;;0.83;0.73;;;7.90;1.40;;;8.70;100.00;94450.91;646729;216;31498;-73
2022/04/25 05:22:24;;;;;;;0.60;0.50;;;8.00;1.40;;;8.68;100.00;94446.81;646971;216;31522;-72
2022/04/25 05:25:06;;;;;;;3.00;0.40;;;8.00;1.40;;;8.67;100.00;94452.30;646718;212;32332;-72
2022/04/25 05:27:48;;;;;;;1.00;0.60;;;8.10;1.40;;;8.70;100.00;94451.03;646459;216;31501;-73
2022/04/25 05:30:29;;;;;;;1.33;0.47;;;8.10;1.40;;;8.69;100.00;94460.55;645508;216;31551;-72
2022/04/25 05:35:52;;;;;;;0.60;0.60;;;8.10;1.40;;;8.72;100.00;94461.38;647096;216;31935;-73
2022/04/25 05:38:33;;;;;;;0.60;0.40;;;8.20;1.40;;;8.81;100.00;94465.41;618469;226;32009;-74
2022/04/25 05:41:14;;;;;;;0.90;0.57;;;8.20;1.40;;;8.93;100.00;94467.77;618037;226;32319;-73
2022/04/25 05:43:57;;;;;;;1.30;0.90;;;8.20;1.40;;;8.81;100.00;94471.58;647252;212;31598;-74
2022/04/25 05:46:38;;;;;;;1.70;0.60;;;8.20;1.40;;;8.83;100.00;94479.56;646316;216;31460;-73
2022/04/25 05:52:08;;;;;;;0.87;0.87;;;8.40;1.40;;;9.01;100.00;94483.28;618583;226;31890;-72
2022/04/25 05:54:49;;;;;;;1.20;1.10;;;8.50;1.40;;;9.10;100.00;94489.97;647536;216;31545;-73
2022/04/25 05:57:33;;;;;;;1.30;1.10;;;8.50;1.40;;;9.26;100.00;94490.37;645653;216;32140;-73
2022/04/25 06:00:15;;;;;;;1.17;0.70;;;8.70;1.40;;;9.63;100.00;94498.77;645144;212;32122;-73
2022/04/25 06:02:57;;;;;;;1.87;1.12;;;8.70;1.40;;;9.55;100.00;94498.98;647209;216;31511;-72
2022/04/25 06:05:39;;;;;;;1.52;1.17;;;8.80;1.40;;;9.54;100.00;94500.53;619416;226;32492;-73
2022/04/25 06:08:20;;;;;;;2.10;1.42;;;8.70;1.40;;;9.40;100.00;94508.66;640863;216;32266;-73
2022/04/25 06:12:03;;;;;;;1.27;1.17;;;8.70;1.40;;;9.32;100.00;94511.25;645820;212;31589;-72
2022/04/25 06:14:45;;;;;;;1.97;1.03;;;8.60;1.40;;;9.39;100.00;94513.11;618285;226;31954;-73
2022/04/25 06:17:26;;;;;;;1.87;1.20;;;8.60;1.40;;;9.37;100.00;94514.97;645908;216;42771;-75
2022/04/25 06:20:11;;;;;;;2.00;1.43;;;8.60;1.40;;;9.31;100.00;94521.38;647774;216;31536;-74
2022/04/25 06:25:28;;;;;;;1.58;1.35;;;8.60;1.40;;;9.39;100.00;94522.92;647016;212;31493;-72
2022/04/25 06:28:09;;;;;;;1.60;1.50;;;8.70;1.40;;;9.45;100.00;94522.84;618836;225;31950;-73
2022/04/25 06:35:51;;;;;;;2.25;1.37;;;9.10;1.40;;;10.14;100.00;94528.13;618873;222;31931;-72
2022/04/25 06:38:41;;;;;;;2.43;2.23;;;9.30;1.40;;;10.43;100.00;94537.33;647033;216;42670;-73
2022/04/25 06:41:22;;;;;;;2.13;1.17;;;9.30;1.40;;;10.08;100.00;94545.42;646643;212;31566;-73
2022/04/25 06:44:06;;;;;;;2.17;1.83;;;9.20;1.40;;;9.93;100.00;94540.70;645417;216;32132;-73
2022/04/25 06:46:49;;;;;;;2.07;1.73;;;9.20;1.40;;;10.15;100.00;94542.02;618662;226;31920;-73
2022/04/25 06:49:30;;;;;;;2.80;1.90;;;9.40;1.40;;;10.36;100.00;94544.00;645946;216;31555;-72
2022/04/25 06:52:12;;;;;;;2.90;2.20;;;9.50;1.40;;;10.32;100.00;94545.23;620434;226;32009;-75
2022/04/25 06:54:54;;;;;;;4.57;2.53;;;9.50;1.40;;;10.25;100.00;94550.72;646520;216;31595;-72
2022/04/25 06:57:36;;;;;;;3.33;2.33;;;9.50;1.40;;;10.17;100.00;94548.36;645736;212;31589;-73
2022/04/25 07:00:17;;;;;;;4.30;2.50;;;9.50;1.40;;;10.30;100.00;94549.88;645196;212;42189;-73
2022/04/25 07:02:59;;;;;;;3.37;2.10;;;9.50;1.40;;;10.32;100.00;94553.56;630923;220;42319;-73
2022/04/25 07:05:42;;;;;;;3.63;2.40;;;9.60;1.40;;;10.07;100.00;94564.41;646404;216;33580;-73
2022/04/25 07:08:22;;;;;;;4.10;3.00;;;9.40;1.40;;;10.38;100.00;94562.33;646774;216;42156;-72
2022/04/25 07:11:04;;;;;;;3.30;1.90;;;9.60;1.40;;;10.59;100.00;94564.02;647189;212;42191;-73
2022/04/25 07:13:49;;;;;;;3.60;2.20;;;9.70;1.40;;;10.49;100.00;94567.83;645438;216;31867;-73
2022/04/25 07:16:30;;;;;;;2.13;1.93;;;9.70;1.40;;;10.66;100.00;94574.02;645538;216;42113;-72
2022/04/25 07:19:12;;;;;;;3.75;1.87;;;9.90;1.40;;;10.61;100.00;94575.77;646047;216;31559;-72
2022/04/25 07:30:15;;;;;;;3.60;2.80;;;10.70;1.40;;;11.49;100.00;94573.32;645434;216;42182;-73
2022/04/25 07:32:57;;;;;;;2.77;2.47;;;10.90;1.40;;;11.95;100.00;94574.52;646035;216;42491;-73
2022/04/25 07:35:53;;;;;;;2.65;2.45;;;11.20;1.40;;;12.07;100.00;94576.13;647512;216;32174;-73
2022/04/25 07:38:33;;;;;;;3.47;3.12;;;11.20;1.40;;;11.95;100.00;94580.22;646662;212;31708;-73
2022/04/25 07:41:14;;;;;;;3.10;2.20;;;10.90;1.40;;;11.97;100.00;94578.82;647585;216;31737;-73
2022/04/25 07:43:57;;;;;;;2.80;2.50;;;10.90;1.40;;;11.77;100.00;94587.93;646681;216;42163;-72
2022/04/25 07:46:40;;;;;;;3.20;2.90;;;10.70;1.40;;;11.86;100.00;94583.83;646050;215;31544;-73
2022/04/25 07:49:20;;;;;;;3.00;2.30;;;10.80;1.40;;;11.80;100.00;94594.09;644833;216;31609;-73
2022/04/25 07:52:01;;;;;;;2.60;1.30;;;10.60;1.40;;;11.45;100.00;94599.65;646808;216;31545;-73
2022/04/25 07:54:43;;;;;;;2.10;1.80;;;10.40;1.40;;;11.18;100.00;94603.86;646512;216;32353;-73
2022/04/25 07:57:25;;;;;;;2.93;2.00;;;10.30;1.40;;;11.22;100.00;94600.38;645846;216;31765;-73
2022/04/25 08:00:08;;;;;;;2.50;1.93;;;10.30;1.40;;;11.40;100.00;94609.18;646440;216;31673;-73
2022/04/25 08:02:49;;;;;;;4.00;2.50;;;10.40;1.40;;;11.63;100.00;94604.13;647313;212;31585;-73
2022/04/25 08:05:31;;;;;;;2.73;2.07;;;10.50;1.40;;;11.80;100.00;94609.09;645726;212;31792;-73
2022/04/25 08:08:13;;;;;;;4.10;2.10;;;10.60;1.40;;;11.84;100.00;94616.11;641521;216;32117;-73
2022/04/25 08:10:54;;;;;;;2.55;2.10;;;10.70;1.40;;;12.04;100.00;94610.25;647070;216;31556;-73
2022/04/25 08:19:10;;;;;;;4.53;2.73;;;11.40;1.40;;;12.52;100.00;94609.64;645242;216;31680;-73
2022/04/25 08:21:53;;;;;;;3.55;2.50;;;11.40;1.40;;;12.76;100.00;94610.48;646449;216;31662;-72
2022/04/25 08:24:36;;;;;;;2.13;1.90;;;11.70;1.40;;;13.00;100.00;94616.33;647105;216;31614;-73
2022/04/25 08:27:15;;;;;;;3.23;2.07;;;12.00;1.40;;;13.03;100.00;94619.28;646261;216;33104;-73
2022/04/25 08:29:58;;;;;;;4.22;2.55;;;11.60;1.40;;;12.91;100.00;94622.82;647660;216;31583;-73
2022/04/25 08:32:39;;;;;;;2.20;2.00;;;11.70;1.40;;;12.96;100.00;94625.77;646761;216;31886;-73
2022/04/25 08:35:52;;;;;;;3.70;2.47;;;11.40;1.40;;;12.68;100.00;94628.04;645768;216;31564;-73
2022/04/25 08:38:33;;;;;;;3.00;2.70;;;11.50;1.40;;;12.70;100.00;94634.98;645729;212;32385;-73
2022/04/25 08:41:15;;;;;;;2.60;2.35;;;11.50;1.40;;;12.94;100.00;94632.48;647523;212;31602;-73
2022/04/25 08:44:00;;;;;;;2.78;2.20;;;11.90;1.40;;;13.20;100.00;94636.30;646572;216;37901;-73
2022/04/25 08:46:41;;;;;;;2.33;2.10;;;12.00;1.40;;;13.21;100.00;94635.82;646808;216;31670;-74
2022/04/25 08:52:00;;;;;;;3.60;2.62;;;12.30;1.40;;;14.09;100.00;94638.19;646257;212;44174;-73
2022/04/25 08:54:42;;;;;;;3.60;2.40;;;13.40;1.40;;;14.48;100.00;94635.45;647569;216;36080;-74
2022/04/25 08:59:58;;;;;;;5.43;2.08;;;13.20;1.40;;;13.93;98.90;94639.14;645905;215;31596;-74
2022/04/25 09:02:39;;;;;;;2.95;2.28;;;12.70;1.40;;;13.46;100.00;94644.50;645277;215;31776;-73
2022/04/25 09:05:21;;;;;;;2.80;1.58;;;12.40;1.40;;;13.49;100.00;94642.92;645376;216;31550;-73
2022/04/25 09:10:38;;;;;;;2.72;2.17;;;12.00;1.40;;;13.30;100.00;94647.69;647001;216;31585;-72
2022/04/25 09:13:19;;;;;;;2.20;2.00;;;11.90;1.40;;;13.57;100.00;94646.28;645614;216;31558;-73
2022/04/25 09:16:00;;;;;;;4.93;2.70;;;12.20;1.40;;;13.92;100.00;94646.24;646851;216;31537;-73
2022/04/25 09:18:42;;;;;;;3.30;2.58;;;12.90;1.40;;;14.15;100.00;94651.05;646137;216;31550;-73
2022/04/25 09:21:24;;;;;;;3.40;2.60;;;13.00;1.40;;;14.44;100.00;94651.88;645772;216;31556;-72
2022/04/25 09:26:47;;;;;;;3.60;2.30;;;13.30;1.40;;;14.62;100.00;94653.81;647473;212;31577;-73
2022/04/25 09:29:29;;;;;;;3.83;2.75;;;12.80;1.40;;;14.38;100.00;94659.16;646328;212;31619;-73
2022/04/25 09:32:10;;;;;;;2.30;2.10;;;12.50;1.40;;;13.96;100.00;94663.46;646922;216;32136;-73
2022/04/25 09:35:54;;;;;;;4.10;2.75;;;11.90;1.40;;;13.63;100.00;94661.94;618981;226;31958;-73
2022/04/25 09:41:13;;;;;;;3.62;2.83;;;12.30;1.40;;;13.72;100.00;94664.11;646995;216;31568;-73
2022/04/25 09:43:55;;;;;;;3.05;2.53;;;12.20;1.40;;;13.56;100.00;94674.02;619289;225;32408;-72
2022/04/25 09:46:36;;;;;;;4.00;2.28;;;12.10;1.40;;;13.86;100.00;94669.39;618801;225;43251;-73
2022/04/25 09:49:20;;;;;;;3.30;2.40;;;12.50;1.40;;;14.14;100.00;94672.30;618265;222;32440;-73
2022/04/25 09:53:53;;;;;;;3.08;2.30;;;13.30;1.40;;;15.69;94.99;94675.36;647021;216;31675;-73
2022/04/25 09:56:35;;;;;;;4.00;2.92;;;14.50;1.40;;;15.07;93.04;94677.51;646306;216;31644;-73
2022/04/25 09:59:16;;;;;;;4.20;3.00;;;13.70;1.40;;;15.57;92.87;94673.22;646714;216;31618;-73
2022/04/25 10:02:04;;;;;;;3.20;2.67;;;14.10;1.40;;;16.20;87.13;94673.11;646772;216;31594;-73
2022/04/25 10:04:44;;;;;;;3.40;2.30;;;14.60;1.40;;;17.85;80.57;94662.84;646733;216;31585;-73
2022/04/25 10:07:26;;;;;;;3.90;2.75;;;18.80;1.40;;;19.63;68.55;94657.36;646206;216;31526;-73
2022/04/25 10:10:08;;;;;;;2.65;1.95;;;20.20;1.40;;;18.61;62.21;94666.35;645863;216;31562;-74
2022/04/25 10:12:49;;;;;;;2.47;2.00;;;17.20;1.40;;;17.98;67.12;94670.33;645430;216;31769;-74
2022/04/25 10:15:31;;;;;;;3.40;2.37;;;17.00;1.40;;;19.55;64.64;94667.11;645989;216;31607;-74
2022/04/25 10:18:13;;;;;;;3.87;2.57;;;19.20;1.40;;;19.63;60.19;94664.74;618968;226;31920;-74
2022/04/25 10:20:54;;;;;;;3.47;2.60;;;17.60;1.40;;;18.01;66.11;94669.85;646952;216;42196;-73
2022/04/25 10:23:39;;;;;;;2.25;1.67;;;15.30;1.40;;;19.67;67.08;94663.36;645745;216;31782;-74
2022/04/25 10:26:21;;;;;;;2.90;2.60;;;18.00;1.40;;;19.92;65.19;94662.19;645271;216;32151;-73
2022/04/25 10:29:07;;;;;;;2.37;2.17;;;19.60;1.40;;;21.63;57.06;94655.02;646732;216;36300;-74
2022/04/25 10:31:49;;;;;;;3.12;2.78;;;20.20;1.40;;;23.38;49.92;94657.37;619017;226;31876;-73
2022/04/25 10:35:51;;;;;;;3.20;2.70;;;18.60;1.40;;;20.32;57.83;94670.36;632061;217;31755;-74
2022/04/25 10:44:56;;;;;;;2.92;2.58;;;18.60;1.40;;;19.30;58.14;94665.37;645661;216;31580;-74
2022/04/25 10:47:39;;;;;;;3.70;3.20;;;16.10;1.40;;;17.34;62.76;94670.13;645832;216;31545;-73
2022/04/25 10:50:20;;;;;;;2.60;2.40;;;14.50;1.40;;;18.22;68.31;94672.88;645301;216;31562;-73
2022/04/25 10:53:02;;;;;;;3.42;2.40;;;16.10;1.40;;;20.51;56.18;94669.34;645779;216;31606;-73
2022/04/25 10:55:47;;;;;;;2.75;2.37;;;20.10;1.40;;;23.25;51.04;94659.00;646323;216;31582;-75
2022/04/25 10:58:28;;;;;;;3.33;2.62;;;22.50;1.40;;;24.05;50.67;94655.88;645139;212;31575;-74
2022/04/25 11:01:13;;;;;;;3.35;2.12;;;21.10;1.40;;;22.27;48.82;94654.54;646534;212;31583;-74
2022/04/25 11:04:02;;;;;;;3.45;3.15;;;18.50;1.40;;;19.47;54.81;94664.48;646258;216;31579;-74
2022/04/25 11:06:44;;;;;;;3.08;2.50;;;16.10;1.40;;;18.72;59.66;94667.86;646323;216;31665;-75
2022/04/25 11:09:39;;;;;;;3.20;2.97;;;15.90;1.40;;;18.23;61.68;94671.95;635601;215;31801;-74
2022/04/25 11:12:19;;;;;;;2.67;2.47;;;15.60;1.40;;;18.31;61.81;94673.05;645369;216;31664;-73
2022/04/25 11:17:35;;;;;;;2.40;2.20;;;16.50;1.40;;;19.32;52.69;94667.98;645706;215;31740;-73
2022/04/25 11:20:17;;;;;;;3.12;2.78;;;18.40;1.40;;;21.53;50.13;94669.03;646762;216;31613;-73
2022/04/25 11:22:59;;;;;;;2.72;2.17;;;18.90;1.40;;;24.04;47.26;94664.98;647235;216;31585;-74
2022/04/25 11:25:44;;;;;;;3.20;2.80;;;20.70;1.40;;;23.79;43.61;94666.33;646629;216;42353;-74
2022/04/25 11:28:25;;;;;;;2.45;2.25;;;21.00;1.40;;;23.82;42.63;94670.28;645141;216;42230;-74
2022/04/25 11:35:52;;;;;;;2.45;2.25;;;21.60;1.40;;;23.50;40.75;94665.95;647203;216;38885;-73
2022/04/25 11:39:50;;;;;;;3.03;2.60;;;19.40;1.40;;;19.82;47.12;94682.20;645861;216;42486;-73
2022/04/25 11:41:17;;;;;;;3.30;2.60;;;16.80;1.40;;;20.41;49.53;94678.02;646330;216;31649;-73
2022/04/25 11:44:02;;;;;;;4.32;2.70;;;18.60;1.40;;;21.61;43.89;94676.06;618488;226;32148;-73
2022/04/25 11:46:45;;;;;;;3.00;2.80;;;18.60;1.40;;;22.81;44.19;94669.30;645924;216;31900;-74
2022/04/25 11:49:27;;;;;;;3.17;2.87;;;19.80;1.40;;;24.52;43.12;94665.70;646756;216;31654;-74
2022/04/25 11:52:08;;;;;;;4.20;3.80;;;20.20;1.40;;;24.87;45.71;94670.20;646576;216;32095;-73
2022/04/25 11:54:50;;;;;;;6.00;3.03;;;20.20;1.40;;;24.64;46.18;94674.02;646385;212;31697;-73
2022/04/25 11:57:35;;;;;;;3.12;2.83;;;21.70;1.40;;;26.90;40.00;94663.82;646252;216;31996;-74
2022/04/25 12:00:17;;;;;;;3.37;3.08;;;22.00;1.40;;;26.87;40.71;94669.77;646963;212;31854;-74
2022/04/25 12:02:58;;;;;;;3.00;2.70;;;21.30;1.40;;;23.58;41.52;94680.20;647049;216;31738;-74
2022/04/25 12:05:40;;;;;;;3.20;2.90;;;18.40;1.40;;;23.20;44.03;94681.73;646053;212;31851;-75
2022/04/25 12:16:46;;;;;;;2.95;2.60;;;20.20;1.40;;;23.20;42.33;94677.58;645927;216;31615;-75
2022/04/25 12:19:28;;;;;;;3.10;2.80;;;17.80;1.40;;;22.08;43.47;94677.55;646353;216;31534;-74
2022/04/25 12:22:09;;;;;;;3.05;2.70;;;19.20;1.40;;;24.34;40.24;94668.27;645889;216;31679;-74
2022/04/25 12:24:51;;;;;;;3.40;3.10;;;21.50;1.40;;;24.06;41.64;94662.53;647961;216;31666;-74
2022/04/25 12:27:33;;;;;;;3.65;2.40;;;21.40;1.40;;;27.14;36.72;94660.44;647348;216;32120;-73
2022/04/25 12:30:14;;;;;;;3.10;2.45;;;22.60;1.40;;;28.54;36.08;94663.00;646801;212;31770;-74
2022/04/25 12:36:08;;;;;;;3.85;3.45;;;19.90;1.40;;;25.63;41.15;94670.64;618521;225;32051;-74
2022/04/25 12:38:56;;;;;;;3.75;3.45;;;20.30;1.40;;;25.27;40.00;94676.14;646341;216;31643;-74
2022/04/25 12:41:39;;;;;;;3.75;3.10;;;18.50;1.40;;;23.72;41.68;94675.23;646258;212;31558;-75
2022/04/25 12:44:20;;;;;;;3.50;3.20;;;18.20;1.40;;;21.71;42.90;94679.89;646786;216;31570;-73
2022/04/25 12:47:05;;;;;;;3.50;3.20;;;17.60;1.40;;;22.11;43.28;94672.60;646589;216;32207;-74
2022/04/25 12:49:47;;;;;;;2.97;2.67;;;18.00;1.40;;;20.76;45.21;94677.03;645769;212;31771;-73
2022/04/25 12:52:32;;;;;;;2.83;2.50;;;18.30;1.40;;;22.61;40.92;94669.04;619303;226;32537;-73
2022/04/25 12:55:14;;;;;;;3.60;2.80;;;18.00;1.40;;;21.35;42.58;94675.66;646313;216;31560;-73
2022/04/25 12:57:58;;;;;;;2.70;2.50;;;17.70;1.40;;;20.44;45.62;94677.35;647696;213;36118;-74
2022/04/25 13:00:41;;;;;;;3.30;2.60;;;17.10;1.40;;;20.69;44.90;94671.86;645746;216;31585;-74
2022/04/25 13:03:22;;;;;;;4.30;2.80;;;17.60;1.40;;;19.92;45.13;94673.98;647105;216;31607;-75
2022/04/25 13:06:04;;;;;;;2.40;2.20;;;17.20;1.40;;;20.19;45.01;94671.56;646059;212;31548;-74
2022/04/25 13:08:47;;;;;;;3.47;2.33;;;17.20;1.40;;;20.64;44.03;94669.74;639732;216;31741;-73
2022/04/25 13:11:27;;;;;;;2.70;2.50;;;18.00;1.40;;;21.67;42.63;94660.88;646466;216;31532;-73
2022/04/25 13:16:43;;;;;;;3.60;2.22;;;18.40;1.40;;;22.86;40.67;94655.74;646635;212;31519;-74
2022/04/25 13:19:29;;;;;;;4.90;2.43;;;20.30;1.40;;;23.82;39.09;94645.83;647857;216;31522;-73